sensor_id;sensor_type;location;lat;lon;timestamp;pressure;altitude;pressure_sealevel;temperature;humidity
74075;BME280;62428;51.412;5.432;2023-05-13T00:00:54;101868.19;;;13.87;84.68
74075;BME280;62428;51.412;5.432;2023-05-13T00:03:19;101871.72;;;13.88;84.63
74075;BME280;62428;51.412;5.432;2023-05-13T00:05:44;101869.81;;;13.88;84.76
74075;BME280;62428;51.412;5.432;2023-05-13T00:08:10;101860.09;;;13.87;84.41
74075;BME280;62428;51.412;5.432;2023-05-13T00:10:36;101856.31;;;13.88;81.05
74075;BME280;62428;51.412;5.432;2023-05-13T00:13:01;101864.94;;;13.90;83.28
74075;BME280;62428;51.412;5.432;2023-05-13T00:15:27;101857.34;;;13.92;82.61
74075;BME280;62428;51.412;5.432;2023-05-13T00:17:53;101854.34;;;13.94;82.24
74075;BME280;62428;51.412;5.432;2023-05-13T00:20:18;101851.09;;;13.97;82.45
74075;BME280;62428;51.412;5.432;2023-05-13T00:22:44;101856.50;;;13.97;82.68
74075;BME280;62428;51.412;5.432;2023-05-13T00:25:09;101859.47;;;13.95;81.38
74075;BME280;62428;51.412;5.432;2023-05-13T00:27:35;101856.50;;;13.97;82.39
74075;BME280;62428;51.412;5.432;2023-05-13T00:30:00;101853.28;;;13.95;81.53
74075;BME280;62428;51.412;5.432;2023-05-13T00:32:26;101857.06;;;13.94;82.80
74075;BME280;62428;51.412;5.432;2023-05-13T00:34:51;101857.34;;;13.92;82.66
74075;BME280;62428;51.412;5.432;2023-05-13T00:37:17;101860.31;;;13.91;82.77
74075;BME280;62428;51.412;5.432;2023-05-13T00:39:42;101849.84;;;13.89;82.71
74075;BME280;62428;51.412;5.432;2023-05-13T00:42:08;101862.00;;;13.87;83.12
74075;BME280;62428;51.412;5.432;2023-05-13T00:44:36;101853.09;;;13.86;83.12
74075;BME280;62428;51.412;5.432;2023-05-13T00:47:03;101857.72;;;13.86;83.65
74075;BME280;62428;51.412;5.432;2023-05-13T00:49:29;101856.09;;;13.84;83.06
74075;BME280;62428;51.412;5.432;2023-05-13T00:51:56;101852.38;;;13.80;84.19
74075;BME280;62428;51.412;5.432;2023-05-13T00:54:21;101851.84;;;13.78;83.06
74075;BME280;62428;51.412;5.432;2023-05-13T00:56:46;101849.72;;;13.75;83.76
74075;BME280;62428;51.412;5.432;2023-05-13T00:59:12;101858.09;;;13.74;83.65
74075;BME280;62428;51.412;5.432;2023-05-13T01:01:53;101855.69;;;13.72;82.92
74075;BME280;62428;51.412;5.432;2023-05-13T01:04:35;101864.06;;;13.71;83.47
74075;BME280;62428;51.412;5.432;2023-05-13T01:07:08;101867.38;;;13.68;83.56
74075;BME280;62428;51.412;5.432;2023-05-13T01:10:10;101873.56;;;13.68;83.01
74075;BME280;62428;51.412;5.432;2023-05-13T01:12:39;101869.25;;;13.67;83.89
74075;BME280;62428;51.412;5.432;2023-05-13T01:15:12;101861.16;;;13.67;83.68
74075;BME280;62428;51.412;5.432;2023-05-13T01:18:08;101862.53;;;13.64;83.96
74075;BME280;62428;51.412;5.432;2023-05-13T01:20:37;101864.22;;;13.60;83.92
74075;BME280;62428;51.412;5.432;2023-05-13T01:23:04;101861.78;;;13.59;83.92
74075;BME280;62428;51.412;5.432;2023-05-13T01:25:30;101862.34;;;13.56;84.42
74075;BME280;62428;51.412;5.432;2023-05-13T01:27:56;101861.03;;;13.53;84.20
74075;BME280;62428;51.412;5.432;2023-05-13T01:30:22;101860.81;;;13.50;83.79
74075;BME280;62428;51.412;5.432;2023-05-13T01:32:49;101857.59;;;13.48;84.07
74075;BME280;62428;51.412;5.432;2023-05-13T01:35:16;101864.34;;;13.45;84.27
74075;BME280;62428;51.412;5.432;2023-05-13T01:37:42;101861.97;;;13.43;83.99
74075;BME280;62428;51.412;5.432;2023-05-13T01:40:08;101857.94;;;13.41;83.33
74075;BME280;62428;51.412;5.432;2023-05-13T01:42:34;101863.59;;;13.39;83.50
74075;BME280;62428;51.412;5.432;2023-05-13T01:44:59;101864.72;;;13.38;83.38
74075;BME280;62428;51.412;5.432;2023-05-13T01:47:25;101857.47;;;13.34;83.41
74075;BME280;62428;51.412;5.432;2023-05-13T01:49:51;101868.25;;;13.28;83.57
74075;BME280;62428;51.412;5.432;2023-05-13T01:52:16;101860.47;;;13.27;83.57
74075;BME280;62428;51.412;5.432;2023-05-13T01:54:41;101862.13;;;13.23;83.11
74075;BME280;62428;51.412;5.432;2023-05-13T01:57:07;101867.28;;;13.19;83.50
74075;BME280;62428;51.412;5.432;2023-05-13T01:59:32;101864.06;;;13.17;83.45
74075;BME280;62428;51.412;5.432;2023-05-13T02:01:57;101862.47;;;13.16;83.51
74075;BME280;62428;51.412;5.432;2023-05-13T02:04:23;101860.84;;;13.15;83.15
74075;BME280;62428;51.412;5.432;2023-05-13T02:06:48;101861.13;;;13.14;83.45
74075;BME280;62428;51.412;5.432;2023-05-13T02:09:13;101859.00;;;13.11;83.28
74075;BME280;62428;51.412;5.432;2023-05-13T02:11:39;101870.88;;;13.10;83.89
74075;BME280;62428;51.412;5.432;2023-05-13T02:14:04;101859.56;;;13.07;83.82
74075;BME280;62428;51.412;5.432;2023-05-13T02:16:30;101863.34;;;13.06;84.09
74075;BME280;62428;51.412;5.432;2023-05-13T02:18:55;101865.81;;;13.03;84.39
74075;BME280;62428;51.412;5.432;2023-05-13T02:21:21;101863.38;;;13.01;84.19
74075;BME280;62428;51.412;5.432;2023-05-13T02:23:46;101865.56;;;12.99;83.90
74075;BME280;62428;51.412;5.432;2023-05-13T02:26:11;101857.78;;;12.98;84.74
74075;BME280;62428;51.412;5.432;2023-05-13T02:28:37;101864.81;;;12.94;84.69
74075;BME280;62428;51.412;5.432;2023-05-13T02:31:02;101855.91;;;12.93;84.32
74075;BME280;62428;51.412;5.432;2023-05-13T02:33:28;101863.22;;;12.93;85.19
74075;BME280;62428;51.412;5.432;2023-05-13T02:35:53;101859.69;;;12.92;84.85
74075;BME280;62428;51.412;5.432;2023-05-13T02:38:18;101859.69;;;12.92;84.88
74075;BME280;62428;51.412;5.432;2023-05-13T02:40:44;101856.47;;;12.90;84.83
74075;BME280;62428;51.412;5.432;2023-05-13T02:43:09;101853.25;;;12.88;84.12
74075;BME280;62428;51.412;5.432;2023-05-13T02:45:34;101862.44;;;12.87;83.86
74075;BME280;62428;51.412;5.432;2023-05-13T02:48:00;101861.63;;;12.86;82.56
74075;BME280;62428;51.412;5.432;2023-05-13T02:50:25;101860.31;;;12.84;84.05
74075;BME280;62428;51.412;5.432;2023-05-13T02:52:50;101860.56;;;12.82;85.01
74075;BME280;62428;51.412;5.432;2023-05-13T02:55:16;101854.16;;;12.78;83.71
74075;BME280;62428;51.412;5.432;2023-05-13T02:57:42;101859.03;;;12.76;83.91
74075;BME280;62428;51.412;5.432;2023-05-13T03:00:08;101865.75;;;12.74;83.71
74075;BME280;62428;51.412;5.432;2023-05-13T03:02:34;101856.63;;;12.69;84.05
74075;BME280;62428;51.412;5.432;2023-05-13T03:05:00;101860.69;;;12.67;83.99
74075;BME280;62428;51.412;5.432;2023-05-13T03:07:25;101858.28;;;12.65;83.62
74075;BME280;62428;51.412;5.432;2023-05-13T03:09:51;101859.13;;;12.61;83.54
74075;BME280;62428;51.412;5.432;2023-05-13T03:12:16;101857.00;;;12.58;83.67
74075;BME280;62428;51.412;5.432;2023-05-13T03:14:41;101857.28;;;12.56;83.79
74075;BME280;62428;51.412;5.432;2023-05-13T03:17:09;101854.88;;;12.49;83.92
74075;BME280;62428;51.412;5.432;2023-05-13T03:19:35;101853.84;;;12.45;83.88
74075;BME280;62428;51.412;5.432;2023-05-13T03:22:01;101855.19;;;12.43;83.16
74075;BME280;62428;51.412;5.432;2023-05-13T03:24:26;101851.97;;;12.41;83.40
74075;BME280;62428;51.412;5.432;2023-05-13T03:26:52;101855.25;;;12.38;83.30
74075;BME280;62428;51.412;5.432;2023-05-13T03:29:17;101853.09;;;12.35;83.47
74075;BME280;62428;51.412;5.432;2023-05-13T03:31:43;101860.66;;;12.33;82.84
74075;BME280;62428;51.412;5.432;2023-05-13T03:34:08;101857.72;;;12.29;83.07
74075;BME280;62428;51.412;5.432;2023-05-13T03:36:34;101864.16;;;12.28;82.49
74075;BME280;62428;51.412;5.432;2023-05-13T03:38:59;101860.16;;;12.25;82.84
74075;BME280;62428;51.412;5.432;2023-05-13T03:41:25;101866.09;;;12.22;83.38
74075;BME280;62428;51.412;5.432;2023-05-13T03:43:52;101864.75;;;12.20;82.74
74075;BME280;62428;51.412;5.432;2023-05-13T03:46:17;101866.63;;;12.19;82.84
74075;BME280;62428;51.412;5.432;2023-05-13T03:48:43;101868.00;;;12.17;82.62
74075;BME280;62428;51.412;5.432;2023-05-13T03:51:08;101875.81;;;12.13;82.82
74075;BME280;62428;51.412;5.432;2023-05-13T03:53:34;101870.44;;;12.13;83.62
74075;BME280;62428;51.412;5.432;2023-05-13T03:55:59;101867.22;;;12.11;82.67
74075;BME280;62428;51.412;5.432;2023-05-13T03:58:24;101869.38;;;12.09;82.81
74075;BME280;62428;51.412;5.432;2023-05-13T04:00:50;101869.13;;;12.05;83.28
74075;BME280;62428;51.412;5.432;2023-05-13T04:03:15;101872.09;;;12.04;83.59
74075;BME280;62428;51.412;5.432;2023-05-13T04:05:41;101866.47;;;12.00;83.07
74075;BME280;62428;51.412;5.432;2023-05-13T04:08:07;101863.25;;;11.98;83.68
74075;BME280;62428;51.412;5.432;2023-05-13T04:10:32;101870.00;;;11.96;83.50
74075;BME280;62428;51.412;5.432;2023-05-13T04:12:58;101863.78;;;11.95;83.93
74075;BME280;62428;51.412;5.432;2023-05-13T04:15:23;101873.75;;;11.95;83.75
74075;BME280;62428;51.412;5.432;2023-05-13T04:17:48;101872.44;;;11.92;83.79
74075;BME280;62428;51.412;5.432;2023-05-13T04:20:14;101867.31;;;11.90;83.20
74075;BME280;62428;51.412;5.432;2023-05-13T04:22:39;101871.03;;;11.89;83.01
74075;BME280;62428;51.412;5.432;2023-05-13T04:25:05;101871.03;;;11.89;83.03
74075;BME280;62428;51.412;5.432;2023-05-13T04:27:30;101872.94;;;11.89;83.64
74075;BME280;62428;51.412;5.432;2023-05-13T04:29:55;101873.22;;;11.92;84.02
74075;BME280;62428;51.412;5.432;2023-05-13T04:32:21;101880.78;;;11.90;84.07
74075;BME280;62428;51.412;5.432;2023-05-13T04:34:47;101875.91;;;11.87;83.54
74075;BME280;62428;51.412;5.432;2023-05-13T04:37:12;101885.88;;;11.87;83.88
74075;BME280;62428;51.412;5.432;2023-05-13T04:39:38;101876.16;;;11.86;83.80
74075;BME280;62428;51.412;5.432;2023-05-13T04:42:03;101875.09;;;11.87;83.85
74075;BME280;62428;51.412;5.432;2023-05-13T04:44:29;101877.53;;;11.88;84.89
74075;BME280;62428;51.412;5.432;2023-05-13T04:46:54;101880.22;;;11.88;84.72
74075;BME280;62428;51.412;5.432;2023-05-13T04:49:19;101881.81;;;11.89;84.67
74075;BME280;62428;51.412;5.432;2023-05-13T04:51:45;101881.81;;;11.89;85.08
74075;BME280;62428;51.412;5.432;2023-05-13T04:54:10;101887.19;;;11.89;85.04
74075;BME280;62428;51.412;5.432;2023-05-13T04:56:36;101890.44;;;11.91;85.73
74075;BME280;62428;51.412;5.432;2023-05-13T04:59:01;101889.66;;;11.91;85.37
74075;BME280;62428;51.412;5.432;2023-05-13T05:01:27;101885.06;;;11.91;86.20
74075;BME280;62428;51.412;5.432;2023-05-13T05:03:52;101899.06;;;11.93;85.43
74075;BME280;62428;51.412;5.432;2023-05-13T05:06:17;101896.94;;;11.96;85.17
74075;BME280;62428;51.412;5.432;2023-05-13T05:08:43;101894.75;;;11.98;83.69
74075;BME280;62428;51.412;5.432;2023-05-13T05:11:08;101895.28;;;12.00;85.45
74075;BME280;62428;51.412;5.432;2023-05-13T05:13:34;101895.81;;;12.02;85.28
74075;BME280;62428;51.412;5.432;2023-05-13T05:15:59;101903.34;;;12.05;83.35
74075;BME280;62428;51.412;5.432;2023-05-13T05:18:25;101910.34;;;12.06;83.17
74075;BME280;62428;51.412;5.432;2023-05-13T05:20:50;101911.38;;;12.10;83.17
74075;BME280;62428;51.412;5.432;2023-05-13T05:23:15;101915.97;;;12.15;83.11
74075;BME280;62428;51.412;5.432;2023-05-13T05:25:41;101916.75;;;12.20;83.13
74075;BME280;62428;51.412;5.432;2023-05-13T05:28:07;101920.22;;;12.26;82.83
74075;BME280;62428;51.412;5.432;2023-05-13T05:30:33;101916.19;;;12.28;82.13
74075;BME280;62428;51.412;5.432;2023-05-13T05:33:04;101928.81;;;12.33;82.82
74075;BME280;62428;51.412;5.432;2023-05-13T05:35:30;101921.78;;;12.37;82.35
74075;BME280;62428;51.412;5.432;2023-05-13T05:37:55;101925.56;;;12.41;82.40
74075;BME280;62428;51.412;5.432;2023-05-13T05:40:21;101921.22;;;12.45;82.06
74075;BME280;62428;51.412;5.432;2023-05-13T05:42:46;101927.38;;;12.51;81.33
74075;BME280;62428;51.412;5.432;2023-05-13T05:45:11;101927.91;;;12.53;81.91
74075;BME280;62428;51.412;5.432;2023-05-13T05:47:37;101922.75;;;12.57;81.81
74075;BME280;62428;51.412;5.432;2023-05-13T05:50:02;101915.72;;;12.61;81.95
74075;BME280;62428;51.412;5.432;2023-05-13T05:52:28;101925.41;;;12.67;82.67
74075;BME280;62428;51.412;5.432;2023-05-13T05:54:53;101929.94;;;12.72;83.17
74075;BME280;62428;51.412;5.432;2023-05-13T05:57:18;101927.22;;;12.77;81.67
74075;BME280;62428;51.412;5.432;2023-05-13T05:59:44;101935.00;;;12.83;83.29
74075;BME280;62428;51.412;5.432;2023-05-13T06:02:09;101931.72;;;12.92;81.36
74075;BME280;62428;51.412;5.432;2023-05-13T06:04:35;101932.72;;;13.01;82.98
74075;BME280;62428;51.412;5.432;2023-05-13T06:07:00;101935.09;;;13.07;80.94
74075;BME280;62428;51.412;5.432;2023-05-13T06:09:25;101937.50;;;13.14;78.91
74075;BME280;62428;51.412;5.432;2023-05-13T06:11:51;101944.97;;;13.22;79.33
74075;BME280;62428;51.412;5.432;2023-05-13T06:14:16;101941.13;;;13.28;79.45
74075;BME280;62428;51.412;5.432;2023-05-13T06:16:41;101945.19;;;13.31;81.17
74075;BME280;62428;51.412;5.432;2023-05-13T06:19:07;101941.13;;;13.34;82.69
74075;BME280;62428;51.412;5.432;2023-05-13T06:21:32;101938.94;;;13.36;80.05
74075;BME280;62428;51.412;5.432;2023-05-13T06:23:58;101946.47;;;13.39;80.16
74075;BME280;62428;51.412;5.432;2023-05-13T06:26:24;101943.97;;;13.48;77.47
74075;BME280;62428;51.412;5.432;2023-05-13T06:28:50;101940.84;;;13.64;79.20
74075;BME280;62428;51.412;5.432;2023-05-13T06:31:16;101942.09;;;13.72;80.48
74075;BME280;62428;51.412;5.432;2023-05-13T06:33:41;101949.31;;;13.82;78.98
74075;BME280;62428;51.412;5.432;2023-05-13T06:36:07;101949.38;;;14.01;80.84
74075;BME280;62428;51.412;5.432;2023-05-13T06:38:34;101948.84;;;14.23;77.63
74075;BME280;62428;51.412;5.432;2023-05-13T06:40:59;101946.53;;;14.35;75.89
74075;BME280;62428;51.412;5.432;2023-05-13T06:43:24;101951.00;;;14.45;75.25
74075;BME280;62428;51.412;5.432;2023-05-13T06:45:50;101958.94;;;14.60;74.21
74075;BME280;62428;51.412;5.432;2023-05-13T06:48:15;101955.50;;;14.74;74.75
74075;BME280;62428;51.412;5.432;2023-05-13T06:50:41;101960.09;;;14.92;74.48
74075;BME280;62428;51.412;5.432;2023-05-13T06:53:08;101952.47;;;15.13;76.52
74075;BME280;62428;51.412;5.432;2023-05-13T06:55:33;101954.28;;;15.18;73.83
74075;BME280;62428;51.412;5.432;2023-05-13T06:58:05;101952.09;;;15.20;74.33
74075;BME280;62428;51.412;5.432;2023-05-13T07:00:31;101952.59;;;15.22;74.28
74075;BME280;62428;51.412;5.432;2023-05-13T07:02:56;101953.84;;;15.44;74.67
74075;BME280;62428;51.412;5.432;2023-05-13T07:05:21;101958.22;;;15.72;70.35
74075;BME280;62428;51.412;5.432;2023-05-13T07:07:47;101956.38;;;15.87;69.35
74075;BME280;62428;51.412;5.432;2023-05-13T07:10:12;101962.56;;;15.73;68.91
74075;BME280;62428;51.412;5.432;2023-05-13T07:12:38;101953.84;;;15.76;68.94
74075;BME280;62428;51.412;5.432;2023-05-13T07:15:03;101965.53;;;16.05;68.98
74075;BME280;62428;51.412;5.432;2023-05-13T07:17:29;101962.97;;;16.36;70.43
74075;BME280;62428;51.412;5.432;2023-05-13T07:19:55;101963.91;;;16.68;70.32
74075;BME280;62428;51.412;5.432;2023-05-13T07:22:20;101951.09;;;16.96;69.33
74075;BME280;62428;51.412;5.432;2023-05-13T07:24:46;101960.03;;;17.19;68.52
74075;BME280;62428;51.412;5.432;2023-05-13T07:27:11;101962.56;;;17.38;66.03
74075;BME280;62428;51.412;5.432;2023-05-13T07:29:36;101957.72;;;17.58;66.58
74075;BME280;62428;51.412;5.432;2023-05-13T07:32:06;101948.84;;;17.75;63.71
74075;BME280;62428;51.412;5.432;2023-05-13T07:34:31;101955.00;;;17.89;64.60
74075;BME280;62428;51.412;5.432;2023-05-13T07:36:56;101958.72;;;18.02;63.60
74075;BME280;62428;51.412;5.432;2023-05-13T07:39:22;101957.50;;;18.17;61.17
74075;BME280;62428;51.412;5.432;2023-05-13T07:41:47;101958.97;;;18.40;64.34
74075;BME280;62428;51.412;5.432;2023-05-13T07:44:13;101960.28;;;18.52;59.63
74075;BME280;62428;51.412;5.432;2023-05-13T07:46:39;101967.78;;;18.63;61.74
74075;BME280;62428;51.412;5.432;2023-05-13T07:49:05;101961.88;;;18.70;60.72
74075;BME280;62428;51.412;5.432;2023-05-13T07:51:33;101964.50;;;18.84;59.49
74075;BME280;62428;51.412;5.432;2023-05-13T07:53:58;101967.34;;;18.96;60.67
74075;BME280;62428;51.412;5.432;2023-05-13T07:56:23;101961.09;;;19.05;60.77
74075;BME280;62428;51.412;5.432;2023-05-13T07:58:49;101966.25;;;19.15;59.33
74075;BME280;62428;51.412;5.432;2023-05-13T08:01:15;101963.94;;;19.26;59.37
74075;BME280;62428;51.412;5.432;2023-05-13T08:03:40;101968.13;;;19.32;57.16
74075;BME280;62428;51.412;5.432;2023-05-13T08:06:05;101963.44;;;19.41;58.44
74075;BME280;62428;51.412;5.432;2023-05-13T08:08:31;101970.31;;;19.47;59.36
74075;BME280;62428;51.412;5.432;2023-05-13T08:10:56;101971.09;;;19.56;59.29
74075;BME280;62428;51.412;5.432;2023-05-13T08:13:21;101968.97;;;19.62;58.14
74075;BME280;62428;51.412;5.432;2023-05-13T08:15:47;101971.38;;;19.64;56.67
74075;BME280;62428;51.412;5.432;2023-05-13T08:18:13;101965.44;;;19.70;58.36
74075;BME280;62428;51.412;5.432;2023-05-13T08:20:39;101965.13;;;19.81;57.04
74075;BME280;62428;51.412;5.432;2023-05-13T08:23:04;101965.06;;;19.89;58.67
74075;BME280;62428;51.412;5.432;2023-05-13T08:25:30;101963.31;;;19.93;57.42
74075;BME280;62428;51.412;5.432;2023-05-13T08:27:56;101966.47;;;20.04;58.23
74075;BME280;62428;51.412;5.432;2023-05-13T08:30:21;101956.09;;;20.19;56.85
74075;BME280;62428;51.412;5.432;2023-05-13T08:32:47;101958.31;;;20.25;54.69
74075;BME280;62428;51.412;5.432;2023-05-13T08:35:12;101966.31;;;20.30;57.20
74075;BME280;62428;51.412;5.432;2023-05-13T08:37:38;101953.44;;;20.31;56.64
74075;BME280;62428;51.412;5.432;2023-05-13T08:40:04;101953.41;;;20.40;57.38
74075;BME280;62428;51.412;5.432;2023-05-13T08:42:36;101957.38;;;20.42;57.62
74075;BME280;62428;51.412;5.432;2023-05-13T08:45:03;101956.53;;;20.50;59.25
74075;BME280;62428;51.412;5.432;2023-05-13T08:47:49;101959.88;;;20.56;58.03
74075;BME280;62428;51.412;5.432;2023-05-13T08:50:15;101958.69;;;20.66;56.92
74075;BME280;62428;51.412;5.432;2023-05-13T08:52:42;101955.56;;;20.76;56.76
74075;BME280;62428;51.412;5.432;2023-05-13T08:55:08;101953.56;;;20.85;57.08
74075;BME280;62428;51.412;5.432;2023-05-13T08:57:34;101950.94;;;20.89;57.45
74075;BME280;62428;51.412;5.432;2023-05-13T09:00:00;101958.38;;;21.01;55.42
74075;BME280;62428;51.412;5.432;2023-05-13T09:02:25;101951.72;;;21.10;57.50
74075;BME280;62428;51.412;5.432;2023-05-13T09:04:52;101957.91;;;21.20;55.52
74075;BME280;62428;51.412;5.432;2023-05-13T09:07:18;101954.69;;;21.18;59.21
74075;BME280;62428;51.412;5.432;2023-05-13T09:09:44;101950.44;;;21.08;52.43
74075;BME280;62428;51.412;5.432;2023-05-13T09:12:10;101949.00;;;21.10;55.41
74075;BME280;62428;51.412;5.432;2023-05-13T09:14:36;101961.75;;;21.19;56.84
74075;BME280;62428;51.412;5.432;2023-05-13T09:17:03;101948.13;;;21.31;55.55
74075;BME280;62428;51.412;5.432;2023-05-13T09:19:28;101945.63;;;21.38;55.85
74075;BME280;62428;51.412;5.432;2023-05-13T09:21:54;101948.94;;;21.44;57.24
74075;BME280;62428;51.412;5.432;2023-05-13T09:24:20;101944.88;;;21.50;52.66
74075;BME280;62428;51.412;5.432;2023-05-13T09:26:47;101944.53;;;21.52;55.23
74075;BME280;62428;51.412;5.432;2023-05-13T09:29:22;101941.59;;;21.57;55.88
74075;BME280;62428;51.412;5.432;2023-05-13T09:31:53;101936.38;;;21.64;56.09
74075;BME280;62428;51.412;5.432;2023-05-13T09:34:30;101937.38;;;21.59;51.12
74075;BME280;62428;51.412;5.432;2023-05-13T09:39:27;101940.91;;;21.60;50.75
74075;BME280;62428;51.412;5.432;2023-05-13T09:41:53;101941.03;;;21.63;54.70
74075;BME280;62428;51.412;5.432;2023-05-13T09:44:18;101942.84;;;21.72;54.63
74075;BME280;62428;51.412;5.432;2023-05-13T09:46:45;101936.25;;;21.73;48.26
74075;BME280;62428;51.412;5.432;2023-05-13T09:49:11;101933.97;;;21.75;49.31
74075;BME280;62428;51.412;5.432;2023-05-13T09:51:36;101940.00;;;21.80;50.87
74075;BME280;62428;51.412;5.432;2023-05-13T09:54:06;101932.72;;;21.84;52.59
74075;BME280;62428;51.412;5.432;2023-05-13T09:56:33;101924.41;;;21.93;52.62
74075;BME280;62428;51.412;5.432;2023-05-13T09:58:59;101932.59;;;21.93;46.81
74075;BME280;62428;51.412;5.432;2023-05-13T10:01:25;101931.94;;;21.84;44.96
74075;BME280;62428;51.412;5.432;2023-05-13T10:03:53;101927.34;;;21.76;47.09
74075;BME280;62428;51.412;5.432;2023-05-13T10:06:24;101929.28;;;21.75;46.52
74075;BME280;62428;51.412;5.432;2023-05-13T10:08:50;101920.41;;;21.78;48.87
74075;BME280;62428;51.412;5.432;2023-05-13T10:11:17;101926.13;;;21.85;52.46
74075;BME280;62428;51.412;5.432;2023-05-13T10:13:46;101924.63;;;22.00;51.53
74075;BME280;62428;51.412;5.432;2023-05-13T10:16:14;101927.03;;;22.02;45.54
74075;BME280;62428;51.412;5.432;2023-05-13T10:18:40;101916.41;;;22.00;49.26
74075;BME280;62428;51.412;5.432;2023-05-13T10:21:06;101925.41;;;22.01;47.93
74075;BME280;62428;51.412;5.432;2023-05-13T10:23:32;101922.78;;;22.04;46.74
74075;BME280;62428;51.412;5.432;2023-05-13T10:25:58;101921.75;;;22.09;49.76
74075;BME280;62428;51.412;5.432;2023-05-13T10:28:24;101919.25;;;22.16;46.65
74075;BME280;62428;51.412;5.432;2023-05-13T10:30:49;101913.50;;;22.21;47.62
74075;BME280;62428;51.412;5.432;2023-05-13T10:33:16;101918.56;;;22.32;47.83
74075;BME280;62428;51.412;5.432;2023-05-13T10:43:44;101915.22;;;22.51;44.42
74075;BME280;62428;51.412;5.432;2023-05-13T10:46:12;101912.38;;;22.47;43.94
74075;BME280;62428;51.412;5.432;2023-05-13T10:51:04;101912.81;;;22.49;44.91
74075;BME280;62428;51.412;5.432;2023-05-13T10:53:47;101909.88;;;22.42;46.22
74075;BME280;62428;51.412;5.432;2023-05-13T10:56:12;101914.91;;;22.40;43.53
74075;BME280;62428;51.412;5.432;2023-05-13T10:58:38;101911.66;;;22.50;48.94
74075;BME280;62428;51.412;5.432;2023-05-13T11:01:32;101905.91;;;22.68;44.65
74075;BME280;62428;51.412;5.432;2023-05-13T11:04:00;101897.78;;;22.87;44.42
74075;BME280;62428;51.412;5.432;2023-05-13T11:06:33;101907.34;;;23.06;43.64
74075;BME280;62428;51.412;5.432;2023-05-13T11:08:59;101896.91;;;23.11;43.32
74075;BME280;62428;51.412;5.432;2023-05-13T11:11:32;101905.22;;;23.15;41.89
74075;BME280;62428;51.412;5.432;2023-05-13T11:16:23;101897.72;;;23.28;42.56
74075;BME280;62428;51.412;5.432;2023-05-13T11:18:50;101890.38;;;23.48;41.43
74075;BME280;62428;51.412;5.432;2023-05-13T11:21:16;101881.00;;;23.49;40.41
74075;BME280;62428;51.412;5.432;2023-05-13T11:24:03;101887.72;;;23.35;41.87
74075;BME280;62428;51.412;5.432;2023-05-13T11:26:47;101877.53;;;23.20;41.90
74075;BME280;62428;51.412;5.432;2023-05-13T11:29:13;101882.31;;;23.23;40.16
74075;BME280;62428;51.412;5.432;2023-05-13T11:31:50;101874.44;;;23.21;40.84
74075;BME280;62428;51.412;5.432;2023-05-13T11:34:21;101870.66;;;23.26;38.38
74075;BME280;62428;51.412;5.432;2023-05-13T11:37:08;101871.63;;;23.50;41.79
74075;BME280;62428;51.412;5.432;2023-05-13T11:39:34;101868.41;;;23.79;39.76
74075;BME280;62428;51.412;5.432;2023-05-13T11:42:01;101872.34;;;23.98;37.57
74075;BME280;62428;51.412;5.432;2023-05-13T11:44:31;101872.66;;;24.12;38.21
74075;BME280;62428;51.412;5.432;2023-05-13T11:52:16;101865.44;;;24.04;33.79
74075;BME280;62428;51.412;5.432;2023-05-13T11:57:20;101863.91;;;24.07;33.93
74075;BME280;62428;51.412;5.432;2023-05-13T12:02:28;101855.19;;;24.21;36.58
74075;BME280;62428;51.412;5.432;2023-05-13T12:04:54;101855.78;;;24.30;33.72
74075;BME280;62428;51.412;5.432;2023-05-13T12:07:24;101860.22;;;23.99;32.54
74075;BME280;62428;51.412;5.432;2023-05-13T12:09:51;101851.78;;;23.56;32.29
74075;BME280;62428;51.412;5.432;2023-05-13T12:12:17;101859.78;;;23.46;34.75
74075;BME280;62428;51.412;5.432;2023-05-13T12:14:44;101852.53;;;23.37;32.84
74075;BME280;62428;51.412;5.432;2023-05-13T12:17:11;101849.69;;;23.34;33.59
74075;BME280;62428;51.412;5.432;2023-05-13T12:19:37;101846.59;;;23.35;35.10
74075;BME280;62428;51.412;5.432;2023-05-13T12:22:04;101836.88;;;23.38;34.92
74075;BME280;62428;51.412;5.432;2023-05-13T12:24:32;101851.38;;;23.38;34.49
74075;BME280;62428;51.412;5.432;2023-05-13T12:27:05;101846.09;;;23.30;34.85
74075;BME280;62428;51.412;5.432;2023-05-13T12:29:43;101835.81;;;23.27;35.49
74075;BME280;62428;51.412;5.432;2023-05-13T12:32:09;101847.03;;;23.37;34.10
74075;BME280;62428;51.412;5.432;2023-05-13T12:34:36;101837.22;;;23.52;34.84
74075;BME280;62428;51.412;5.432;2023-05-13T12:37:12;101849.22;;;23.64;34.03
74075;BME280;62428;51.412;5.432;2023-05-13T12:39:41;101842.66;;;23.68;33.39
74075;BME280;62428;51.412;5.432;2023-05-13T12:42:14;101850.72;;;23.77;35.70
74075;BME280;62428;51.412;5.432;2023-05-13T12:44:42;101850.34;;;23.78;32.20
74075;BME280;62428;51.412;5.432;2023-05-13T12:47:08;101845.25;;;23.61;32.89
74075;BME280;62428;51.412;5.432;2023-05-13T12:49:35;101836.34;;;23.48;33.31
74075;BME280;62428;51.412;5.432;2023-05-13T12:52:00;101836.25;;;23.45;35.20
74075;BME280;62428;51.412;5.432;2023-05-13T12:54:28;101828.63;;;23.38;33.31
74075;BME280;62428;51.412;5.432;2023-05-13T12:56:54;101831.50;;;23.26;31.05
74075;BME280;62428;51.412;5.432;2023-05-13T12:59:20;101840.34;;;23.19;32.53
74075;BME280;62428;51.412;5.432;2023-05-13T13:01:46;101836.72;;;23.15;32.15
74075;BME280;62428;51.412;5.432;2023-05-13T13:04:14;101843.25;;;23.26;33.85
74075;BME280;62428;51.412;5.432;2023-05-13T13:06:40;101843.34;;;23.46;35.16
74075;BME280;62428;51.412;5.432;2023-05-13T13:09:06;101848.84;;;23.65;37.85
74075;BME280;62428;51.412;5.432;2023-05-13T13:11:31;101844.72;;;23.71;32.59
74075;BME280;62428;51.412;5.432;2023-05-13T13:13:56;101853.44;;;23.77;32.28